Aérodrome :
LOGIN :

S'inscrire | Disclaimer

   EN    FR    IT 

 










Légende :    VFR   VFR Marginal   IFR   IFR Intensif   IFR Très Intensif
Visi : 
Plafond : 
>= 8 km
>= 3000ft
5 à 8 km
1000 à 3000 ft
1500m à 5 km
500 à 1000 ft
800 à 1500m
200 à 500 ft
< 800m
< 200 ft
Symboles :   Orages  Brouillard  Fortes neiges  Fortes précipitations  Vent > 20 kt
SIGMETs :   Divers  Orages  Givrage  Turbulence  Onde Orograph.  Cendres Volcan.







- Altitude de l'aérodrome : 17 ft
- Code IATA : GRQ


EHGG - Groningen Eelde

DERNIER METAR :
  • 221955Z AUTO 28002KT 5000 BR NSC 13/13 Q1021 NOSIG

METARs EXPIRÉS :
  • 221925Z AUTO 25001KT 4900 BR NSC 13/13 Q1021 NOSIG
  • 221855Z AUTO 30002KT 5000 BR FEW042 13/13 Q1021 NOSIG
  • 221825Z AUTO 30003KT 270V330 8000 NSC 14/13 Q1021 NOSIG
  • 221755Z AUTO 32003KT 6000 NSC 14/13 Q1021 TEMPO 6000
  • 221725Z AUTO 31005KT 270V340 6000 NSC 15/14 Q1020 TEMPO 9999 BKN014

TAF TAF EHGG
Valide du 22 à 18h jusqu'au 24 à 00h UTC


221644Z 2218/2324 25004KT 9999 BKN020
PROB40
TEMPO 2218/2223 6000 -RA -SHRA FEW017TCU BKN020
BECMG 2219/2222 4000 BR MIFG
TEMPO 2221/2308 1200 BCFG
PROB40 2222/2308 0300 FG VV000
BECMG 2308/2311 9999 NSW SCT020
BECMG 2321/2324 0800 FG
Pas de NOTAMs connus pour ce terrain.



MET'MAP, la Météo Aéronautique d'un coup d'oeil ! - Copyright ORBIFLY Décembre 2007 - Disclaimer

ORBIFLY MET'MAP TEAM :

Programmation & Développement : Alexandra Zaïnal
Conception & Développement : Baudouin d'Aumeries
Co-Programmation & Développement : Marc-Olivier Méhu
Soutien technique & logistique : Manuel Goepfert

Contact : metmap@orbifly.com




SOURCES & CREDITS :

   NOAA